EBOSLIPR

Guest
Details From EBOS - Oostende
To LIPR - Rimini Mil
Flight Number -
Tags Generated
Created
Modified
Stats Distance 583 nm / 1,079 km
Max Altitude 0 ft / 0 m
Waypoints 4
Social Downloads 2
Likes 0
Share VATSIM

Download

Looking for another format? Having issues loading an existing format? Contact us
Advertisement - Login to hide

Notes

Generated

Route

EBOS ZH579 CER15 LIPR

ID Type Via Altitude Latitude Longitude Leg Dist Tot Dist Heading (true) Name
O EBOS APT - 0 ft / 0 m 51.19832˚ 2.86670˚ - 0 nm - -
ZH579 FIX - 0 ft / 0 m 47.46603˚ 8.36882˚ 310 nm 310 nm 134° / 138° -
CER15 FIX - 0 ft / 0 m 44.21744˚ 12.32659˚ 255 nm 566 nm 138° / 141° -
O LIPR APT - 0 ft / 0 m 44.02853˚ 12.59696˚ 16 nm 582 nm 134° / 134° -

Altitude Profile

Advertisement - Login to hide

Weather


0- 5 10 15 20 25 30 35+ Temperature / ° C

Clouds and Precipitation
Forecast for 2017-12-18 18:00 UTC. Updated an hour ago

Ground ~20,000 ft ~40,000 ft Winds

EBOS

Details ICAO EBOS (OST)
Name Oostende
Region Belgium
Timezone Europe/Brussels (UTC+1.0)
Stats Elevation 13 ft / 4 m (AMSL)
Location 51.199967° 2.875008°
Runways 1
Magnetic Variation 0.590° E

METAR

EBOS 181820Z 35006KT 9999 FEW022 06/03 Q1030 NOSIG

Decode

TAF

TAF EBOS 181723Z 1818/1924 35010KT 9999 SCT015 SCT030 TEMPO 1900/1910 4000 BR BKN004 PROB30 TEMPO 1903/1908 1200 BCFG BECMG 1906/1908 29008KT

Decode

Departure Runways

ID Width Length Bearing (true) Bearing (mag) Surface Threshold Offset Overrun Length
08 148 ft / 45 m 10,515 ft / 3,205 m 76.36° 75.77° Asphalt 984 ft / 300 m 0 ft / 0 m
26 148 ft / 45 m 10,515 ft / 3,205 m 256.39° 255.80° Asphalt 1,362 ft / 415 m 0 ft / 0 m

LIPR

Details ICAO LIPR (RMI)
Name Rimini Mil
Region Italy
Timezone Europe/Rome (UTC+1.0)
Stats Elevation 41 ft / 12 m (AMSL)
Location 44.020286° 12.611746°
Runways 1
Magnetic Variation 3.168° E

METAR

LIPR 181815Z 21003KT CAVOK 04/01 Q1024

Decode

TAF

Not found

Destination Runways

ID Width Length Bearing (true) Bearing (mag) Surface Threshold Offset Overrun Length
13 148 ft / 45 m 9,818 ft / 2,992 m 127.79° 124.62° Asphalt 1,030 ft / 314 m 846 ft / 258 m
31 148 ft / 45 m 9,818 ft / 2,992 m 307.81° 304.64° Asphalt 1,006 ft / 307 m 376 ft / 115 m

Approach Navaids

Runway Type Ident Frequency Range Bearing (true) Bearing (mag) Slope Elevation
31 Localiser MIR 109.30 MHz 18 nm / 33 km 307.77° 304.60° - 41 ft / 12 m (AMSL)
31 Glidescope MIR 109.30 MHz 10 nm / 19 km 307.80° 304.63° 3.00° 41 ft / 12 m (AMSL)